Asheville Regional Airport (AVL)

 

Airport Diagram
Current Weather/Forecast (VFR Conditions)
METAR KAVL 231154Z 18006KT 10SM BKN100 21/17 A3032 RMK AO2 SLP243 60000 T02110172 10211 20194 53010
TAF KAVL 231153Z 2312/2412 18005KT P6SM SCT020 BKN035 OVC100 FM231500 19007KT P6SM SCT035 SCT250 FM231700 VRB04KT P6SM VCTS SCT035CB SCT250 PROB30 2321/2323 4SM TSRA BKN050CB FM232300 VRB03KT P6SM SCT250

All Charts
General
Chart Name Download
AIRPORT DIAGRAM
TAKEOFF MINIMUMS
ALTERNATE MINIMUMS

Departures
Chart Name Download
ASHEVILLE FIVE

Approaches
Chart Name Download
ILS OR LOC RWY 35
RNAV (GPS) RWY 17
RNAV (GPS) RWY 35


Inbound Traffic (Arrivals)

No inbound traffic.


Outbound Traffic (Departures)

No outbound traffic.